• Join FlightAware (Why Join?)
  • Login
  • US Flag 
03:57AM EDT


 

Airport Tracker/Info


-or-


 

Live Flight TrackerFlight Track Log ✈ UAL109 ✈ 03-Jul-2013 ✈ EGPH / EDI - KEWR

Flight Track Log - Related Links

Times and Time Zones

All times are in EDT time to prevent confusion due to time zone crossing. See the UAL109 flight status page for this flight to view local times or setup timezone preferences in your user account.

Time Position Orientation Groundspeed Altitude Reporting Facility
EDT Latitude Longitude Course Direction KTS MPH feet Rate Location/Type
07:49AM 56.3875 -10.5965 274° West  Level FlightAware Approximate
07:50AM 56.3936 -10.7940 273° West  Level FlightAware Approximate
07:51AM 56.3993 -10.9916 273° West  Level FlightAware Approximate
07:52AM 56.4047 -11.1892 273° West  Level FlightAware Approximate
07:53AM 56.4098 -11.3869 273° West  Level FlightAware Approximate
07:54AM 56.4146 -11.5846 273° West  Level FlightAware Approximate
07:55AM 56.4191 -11.7824 272° West  Level FlightAware Approximate
07:56AM 56.4233 -11.9802 272° West  Level FlightAware Approximate
07:57AM 56.4272 -12.1781 272° West  Level FlightAware Approximate
07:58AM 56.4307 -12.3759 272° West  Level FlightAware Approximate
07:59AM 56.4339 -12.5739 272° West  Level FlightAware Approximate
08:00AM 56.4368 -12.7718 272° West  Level FlightAware Approximate
08:01AM 56.4394 -12.9698 271° West  Level FlightAware Approximate
08:02AM 56.4417 -13.1678 271° West  Level FlightAware Approximate
08:03AM 56.4437 -13.3659 271° West  Level FlightAware Approximate
08:04AM 56.4453 -13.5639 271° West  Level FlightAware Approximate
08:05AM 56.4467 -13.7620 271° West  Level FlightAware Approximate
08:06AM 56.4477 -13.9601 271° West  Level FlightAware Approximate
08:07AM 56.4484 -14.1582 270° West  Level FlightAware Approximate
08:08AM 56.4488 -14.3563 270° West  Level FlightAware Approximate
08:09AM 56.4489 -14.5544 270° West  Level FlightAware Approximate
08:10AM 56.4486 -14.7525 270° West  Level FlightAware Approximate
08:11AM 56.4481 -14.9506 270° West  Level FlightAware Approximate
08:12AM 56.4472 -15.1487 270° West  Level FlightAware Approximate
08:13AM 56.4460 -15.3468 269° West  Level FlightAware Approximate
08:14AM 56.4445 -15.5449 269° West  Level FlightAware Approximate
08:15AM 56.4427 -15.7429 269° West  Level FlightAware Approximate
08:16AM 56.4406 -15.9409 269° West  Level FlightAware Approximate
08:17AM 56.4381 -16.1389 269° West  Level FlightAware Approximate
08:18AM 56.4353 -16.3369 269° West  Level FlightAware Approximate
08:19AM 56.4323 -16.5349 268° West  Level FlightAware Approximate
08:20AM 56.4289 -16.7328 268° West  Level FlightAware Approximate
08:21AM 56.4252 -16.9307 268° West  Level FlightAware Approximate
08:22AM 56.4211 -17.1285 268° West  Level FlightAware Approximate
08:23AM 56.4168 -17.3263 268° West  Level FlightAware Approximate
08:24AM 56.4122 -17.5240 268° West  Level FlightAware Approximate
08:25AM 56.4072 -17.7217 267° West  Level FlightAware Approximate
08:26AM 56.4019 -17.9194 267° West  Level FlightAware Approximate
08:27AM 56.3963 -18.1170 267° West  Level FlightAware Approximate
08:28AM 56.3904 -18.3145 267° West  Level FlightAware Approximate
08:29AM 56.3842 -18.5120 267° West  Level FlightAware Approximate
08:30AM 56.3776 -18.7094 267° West  Level FlightAware Approximate
08:31AM 56.3708 -18.9067 266° West  Level FlightAware Approximate
08:32AM 56.3709 -19.1051 270° West  Level Estimated
08:33AM 56.3706 -19.3035 270° West  Level Estimated
08:34AM 56.3701 -19.5019 270° West  Level Estimated
08:35AM 56.3692 -19.7003 270° West  Level Estimated
08:36AM 56.3680 -19.8987 269° West  Level Estimated
08:37AM 56.3665 -20.0971 269° West  Level Estimated
08:38AM 56.3647 -20.2955 269° West  Level Estimated
08:39AM 56.3625 -20.4938 269° West  Level Estimated
08:40AM 56.3601 -20.6921 269° West  Level Estimated
08:41AM 56.3573 -20.8904 269° West  Level Estimated
08:42AM 56.3542 -21.0887 268° West  Level Estimated
08:43AM 56.3508 -21.2869 268° West  Level Estimated
08:44AM 56.3471 -21.4851 268° West  Level Estimated
08:45AM 56.3430 -21.6832 268° West  Level Estimated
08:46AM 56.3387 -21.8813 268° West  Level Estimated
08:47AM 56.3340 -22.0794 268° West  Level Estimated
08:48AM 56.3290 -22.2774 267° West  Level Estimated
08:48AM 55.0000 -20.0000 294° West 418 481 33,000  Level ETMS Enhanced Traffic Management System
08:49AM 56.3237 -22.4753 267° West  Level Estimated
08:50AM 56.3181 -22.6732 267° West  Level Estimated
08:50AM 55.1000 -20.3833 293° West 418 481 33,000  Level ETMS Enhanced Traffic Management System
08:51AM 56.3122 -22.8711 267° West  Level Estimated
08:52AM 56.3059 -23.0688 267° West  Level Estimated
08:53AM 56.2994 -23.2666 267° West  Level Estimated
08:54AM 55.3214 -21.3096 293° West 418 481 33,000  Level FlightAware Transoceanic
08:55AM 55.3661 -21.4984 293° West 418 481 33,000  Level FlightAware Transoceanic
08:56AM 55.4163 -21.6976 292° West 418 481 33,000  Level FlightAware Transoceanic
08:57AM 55.4603 -21.8871 292° West 418 481 33,000  Level FlightAware Transoceanic
08:58AM 55.5040 -22.0769 292° West 418 481 33,000  Level FlightAware Transoceanic
08:59AM 55.5475 -22.2672 292° West 418 481 33,000  Level FlightAware Transoceanic
09:00AM 55.5906 -22.4579 292° West 418 481 33,000  Level FlightAware Transoceanic
09:01AM 55.6334 -22.6491 292° West 418 481 33,000  Level FlightAware Transoceanic
09:02AM 55.6760 -22.8406 291° West 418 481 33,000  Level FlightAware Transoceanic
09:03AM 55.7182 -23.0326 291° West 418 481 33,000  Level FlightAware Transoceanic
09:04AM 55.7602 -23.2250 291° West 418 481 33,000  Level FlightAware Transoceanic
09:05AM 55.8018 -23.4178 291° West 418 481 33,000  Level FlightAware Transoceanic
09:06AM 55.8431 -23.6110 291° West 418 481 33,000  Level FlightAware Transoceanic
09:07AM 55.8842 -23.8046 291° West 418 481 33,000  Level FlightAware Transoceanic
09:08AM 55.9249 -23.9986 290° West 418 481 33,000  Level FlightAware Transoceanic
09:09AM 55.9653 -24.1930 290° West 418 481 33,000  Level FlightAware Transoceanic
09:10AM 56.0055 -24.3879 290° West 418 481 33,000  Level FlightAware Transoceanic
09:11AM 56.0453 -24.5831 290° West 418 481 33,000  Level FlightAware Transoceanic
09:12AM 56.0848 -24.7787 290° West 418 481 33,000  Level FlightAware Transoceanic
09:13AM 56.1240 -24.9748 290° West 418 481 33,000  Level FlightAware Transoceanic
09:14AM 56.1629 -25.1712 289° West 418 481 33,000  Level FlightAware Transoceanic
09:15AM 56.2014 -25.3681 289° West 418 481 33,000  Level FlightAware Transoceanic
09:16AM 56.2397 -25.5653 289° West 418 481 33,000  Level FlightAware Transoceanic
09:17AM 56.2776 -25.7629 289° West 418 481 33,000  Level FlightAware Transoceanic
09:18AM 56.3153 -25.9609 289° West 418 481 33,000  Level FlightAware Transoceanic
09:19AM 56.3526 -26.1593 289° West 418 481 33,000  Level FlightAware Transoceanic
09:20AM 56.3896 -26.3581 288° West 418 481 33,000  Level FlightAware Transoceanic
09:21AM 56.4263 -26.5573 288° West 418 481 33,000  Level FlightAware Transoceanic
09:22AM 56.4626 -26.7568 288° West 418 481 33,000  Level FlightAware Transoceanic
09:23AM 56.4986 -26.9568 288° West 418 481 33,000  Level FlightAware Transoceanic
09:24AM 56.5344 -27.1571 288° West 418 481 33,000  Level FlightAware Transoceanic
09:25AM 56.5698 -27.3578 288° West 418 481 33,000  Level FlightAware Transoceanic
09:26AM 56.6048 -27.5589 287° West 418 481 33,000  Level FlightAware Transoceanic
09:27AM 56.6396 -27.7603 287° West 418 481 33,000  Level FlightAware Transoceanic
09:28AM 56.6740 -27.9621 287° West 418 481 33,000  Level FlightAware Transoceanic
09:29AM 56.7081 -28.1643 287° West 418 481 33,000  Level FlightAware Transoceanic
09:30AM 56.7418 -28.3668 287° West 418 481 33,000  Level FlightAware Transoceanic
09:31AM 56.7753 -28.5697 287° West 418 481 33,000  Level FlightAware Transoceanic
09:32AM 56.8084 -28.7730 286° West 418 481 33,000  Level FlightAware Transoceanic
09:33AM 56.8411 -28.9766 286° West 418 481 33,000  Level FlightAware Transoceanic
09:34AM 56.8736 -29.1806 286° West 418 481 33,000  Level FlightAware Transoceanic
09:35AM 56.9057 -29.3849 286° West 418 481 33,000  Level FlightAware Transoceanic
09:36AM 56.9375 -29.5896 286° West 418 481 33,000  Level FlightAware Transoceanic
09:37AM 56.9689 -29.7946 286° West 418 481 33,000  Level FlightAware Transoceanic
09:38AM 56.9983 -29.9889 286° West  Level FlightAware Approximate
09:39AM 57.0275 -30.1835 285° West  Level FlightAware Approximate
09:40AM 56.9896 -30.1777 264° West  Level FlightAware Approximate
09:41AM 56.9775 -30.3782 264° West  Level FlightAware Approximate
09:42AM 56.9651 -30.5785 264° West  Level FlightAware Approximate
09:43AM 56.9524 -30.7787 263° West  Level FlightAware Approximate
09:44AM 56.9394 -30.9787 263° West  Level FlightAware Approximate
09:45AM 56.9260 -31.1786 263° West  Level FlightAware Approximate
09:46AM 56.9124 -31.3784 263° West  Level FlightAware Approximate
09:47AM 56.8984 -31.5780 263° West  Level FlightAware Approximate
09:48AM 56.8841 -31.7775 263° West  Level FlightAware Approximate
09:49AM 56.8695 -31.9768 262° West  Level FlightAware Approximate
09:50AM 56.8545 -32.1759 262° West  Level FlightAware Approximate
09:51AM 56.8393 -32.3749 262° West  Level FlightAware Approximate
09:52AM 56.8237 -32.5737 262° West  Level FlightAware Approximate
09:53AM 56.8078 -32.7724 262° West  Level FlightAware Approximate
09:54AM 56.7916 -32.9709 262° West  Level FlightAware Approximate
09:55AM 56.7751 -33.1692 261° West  Level FlightAware Approximate
09:56AM 56.7583 -33.3673 261° West  Level FlightAware Approximate
09:57AM 56.7412 -33.5653 261° West  Level FlightAware Approximate
09:58AM 56.7237 -33.7631 261° West  Level FlightAware Approximate
09:59AM 56.7060 -33.9607 261° West  Level FlightAware Approximate
10:00AM 56.6879 -34.1581 261° West  Level FlightAware Approximate
10:01AM 56.6695 -34.3553 260° West  Level FlightAware Approximate
10:02AM 56.6508 -34.5523 260° West  Level FlightAware Approximate
10:03AM 56.6318 -34.7491 260° West  Level FlightAware Approximate
10:04AM 56.6124 -34.9457 260° West  Level FlightAware Approximate
10:05AM 56.5928 -35.1421 260° West  Level FlightAware Approximate
10:06AM 56.5729 -35.3383 260° West  Level FlightAware Approximate
10:07AM 56.5526 -35.5344 259° West  Level FlightAware Approximate
10:08AM 56.5321 -35.7301 259° West  Level FlightAware Approximate
10:09AM 56.5112 -35.9257 259° West  Level FlightAware Approximate
10:10AM 56.4900 -36.1211 259° West  Level FlightAware Approximate
10:11AM 56.4686 -36.3162 259° West  Level FlightAware Approximate
10:12AM 56.4468 -36.5111 259° West  Level FlightAware Approximate
10:13AM 56.4247 -36.7058 258° West  Level FlightAware Approximate
10:14AM 56.4023 -36.9003 258° West  Level FlightAware Approximate
10:15AM 56.3796 -37.0946 258° West  Level FlightAware Approximate
10:16AM 56.3566 -37.2886 258° West  Level FlightAware Approximate
10:17AM 56.3333 -37.4823 258° West  Level FlightAware Approximate
10:18AM 56.3097 -37.6758 258° West  Level FlightAware Approximate
10:19AM 56.2857 -37.8691 258° West  Level FlightAware Approximate
10:20AM 56.2615 -38.0622 257° West  Level FlightAware Approximate
10:21AM 56.2370 -38.2550 257° West  Level FlightAware Approximate
10:22AM 56.2122 -38.4475 257° West  Level FlightAware Approximate
10:23AM 56.1871 -38.6398 257° West  Level FlightAware Approximate
10:24AM 56.1617 -38.8319 257° West  Level FlightAware Approximate
10:25AM 56.1360 -39.0237 257° West  Level FlightAware Approximate
10:26AM 56.1100 -39.2152 256° West  Level FlightAware Approximate
10:27AM 56.0837 -39.4065 256° West  Level FlightAware Approximate
10:28AM 56.0571 -39.5975 256° West  Level FlightAware Approximate
10:29AM 56.0302 -39.7883 256° West  Level FlightAware Approximate
10:30AM 56.0031 -39.9787 256° West  Level FlightAware Approximate
10:31AM 55.9737 -40.1681 254° West  Level FlightAware Approximate
10:32AM 55.9439 -40.3570 254° West  Level FlightAware Approximate
10:33AM 55.9138 -40.5456 254° West  Level FlightAware Approximate
10:34AM 55.8834 -40.7340 254° West  Level FlightAware Approximate
10:35AM 55.8526 -40.9220 254° West  Level FlightAware Approximate
10:36AM 55.8217 -41.1097 254° West  Level FlightAware Approximate
10:37AM 55.7904 -41.2972 254° West  Level FlightAware Approximate
10:38AM 55.7588 -41.4843 253° West  Level FlightAware Approximate
10:39AM 55.7270 -41.6711 253° West  Level FlightAware Approximate
10:40AM 55.6949 -41.8577 253° West  Level FlightAware Approximate
10:41AM 55.6624 -42.0439 253° West  Level FlightAware Approximate
10:42AM 55.6298 -42.2298 253° West  Level FlightAware Approximate
10:43AM 55.5968 -42.4154 253° West  Level FlightAware Approximate
10:44AM 55.5637 -42.6008 253° West  Level FlightAware Approximate
10:45AM 55.5316 -42.7865 253° West  Level FlightAware Approximate
10:46AM 55.4992 -42.9720 253° West  Level FlightAware Approximate
10:47AM 55.4665 -43.1571 253° West  Level FlightAware Approximate
10:48AM 55.4336 -43.3420 253° West  Level FlightAware Approximate
10:49AM 55.4003 -43.5265 252° West  Level FlightAware Approximate
10:50AM 55.3668 -43.7107 252° West  Level FlightAware Approximate
10:51AM 55.3330 -43.8946 252° West  Level FlightAware Approximate
10:52AM 55.2990 -44.0782 252° West  Level FlightAware Approximate
10:53AM 55.2646 -44.2615 252° West  Level FlightAware Approximate
10:54AM 55.2300 -44.4445 252° West  Level FlightAware Approximate
10:55AM 55.1951 -44.6271 252° West  Level FlightAware Approximate
10:56AM 55.1600 -44.8094 251° West  Level FlightAware Approximate
10:57AM 55.1246 -44.9914 251° West  Level FlightAware Approximate
10:58AM 55.0887 -45.1730 251° West  Level FlightAware Approximate
10:59AM 55.0523 -45.3541 251° West  Level FlightAware Approximate
11:00AM 55.0157 -45.5348 251° West  Level FlightAware Approximate
11:01AM 54.9787 -45.7152 250° West  Level FlightAware Approximate
11:02AM 54.9415 -45.8953 250° West  Level FlightAware Approximate
11:03AM 54.9041 -46.0751 250° West  Level FlightAware Approximate
11:04AM 54.8663 -46.2545 250° West  Level FlightAware Approximate
11:05AM 54.8284 -46.4336 250° West  Level FlightAware Approximate
11:06AM 54.7901 -46.6123 250° West  Level FlightAware Approximate
11:07AM 54.7516 -46.7907 250° West  Level FlightAware Approximate
11:08AM 54.7128 -46.9688 249° West  Level FlightAware Approximate
11:09AM 54.6738 -47.1465 249° West  Level FlightAware Approximate
11:10AM 54.6344 -47.3239 249° West  Level FlightAware Approximate
11:11AM 54.5949 -47.5009 249° West  Level FlightAware Approximate
11:12AM 54.5551 -47.6776 249° West  Level FlightAware Approximate
11:13AM 54.5150 -47.8540 249° West  Level FlightAware Approximate
11:14AM 54.4747 -48.0300 249° West  Level FlightAware Approximate
11:15AM 54.4341 -48.2056 248° West  Level FlightAware Approximate
11:16AM 54.3932 -48.3809 248° West  Level FlightAware Approximate
11:17AM 54.3521 -48.5559 248° West  Level FlightAware Approximate
11:18AM 54.3108 -48.7305 248° West  Level FlightAware Approximate
11:19AM 54.2692 -48.9047 248° West  Level FlightAware Approximate
11:20AM 54.2273 -49.0786 248° West  Level FlightAware Approximate
11:21AM 54.1852 -49.2522 248° West  Level FlightAware Approximate
11:22AM 54.1429 -49.4254 247° West  Level FlightAware Approximate
11:23AM 54.1003 -49.5982 247° West  Level FlightAware Approximate
11:24AM 54.0575 -49.7707 247° West  Level FlightAware Approximate
11:25AM 54.0144 -49.9428 247° West  Level FlightAware Approximate
11:26AM 53.9734 -50.1162 249° West  Level FlightAware Approximate
11:27AM 53.9334 -50.2901 249° West  Level FlightAware Approximate
11:28AM 53.8931 -50.4637 249° West  Level FlightAware Approximate
11:29AM 53.8525 -50.6369 248° West  Level FlightAware Approximate
11:30AM 53.8117 -50.8098 248° West  Level FlightAware Approximate
11:31AM 53.7707 -50.9823 248° West  Level FlightAware Approximate
11:32AM 53.7287 -51.1571 248° West  Level FlightAware Approximate
11:33AM 53.6866 -51.3316 248° West  Level FlightAware Approximate
11:34AM 53.6441 -51.5057 248° West  Level FlightAware Approximate
11:35AM 53.6015 -51.6794 248° West  Level FlightAware Approximate
11:36AM 53.5585 -51.8528 247° West  Level FlightAware Approximate
11:37AM 53.5154 -52.0259 247° West  Level FlightAware Approximate
11:38AM 53.4719 -52.1986 247° West  Level FlightAware Approximate
11:39AM 53.4283 -52.3709 247° West  Level FlightAware Approximate
11:40AM 53.3843 -52.5429 247° West  Level FlightAware Approximate
11:41AM 53.3402 -52.7145 247° West  Level FlightAware Approximate
11:42AM 53.2958 -52.8857 247° West  Level FlightAware Approximate
11:43AM 53.2511 -53.0567 246° West  Level FlightAware Approximate
11:44AM 53.2062 -53.2272 246° West  Level FlightAware Approximate
11:44AM 53.1667 -53.7667 242° Southwest 410 472 33,000  Level Gander Center
11:45AM 53.1610 -53.3974 246° West  Level FlightAware Approximate
11:45AM 53.1167 -53.9500 246° West 410 472 33,000  Level Gander Center
11:46AM 53.1157 -53.5672 246° West  Level FlightAware Approximate
11:46AM 53.0667 -54.1000 241° Southwest 400 460 33,000  Level Gander Center
11:47AM 53.0700 -53.7367 246° West  Level FlightAware Approximate
11:47AM 53.0000 -54.2500 234° Southwest 400 460 33,000  Level Gander Center
11:48AM 53.0242 -53.9058 246° West  Level FlightAware Approximate
11:49AM 52.9632 -54.0564 242° Southwest  Level Estimated
11:49AM 52.9000 -54.6000 245° Southwest 410 472 33,300  Level Gander Center
11:50AM 52.8500 -54.7667 244° Southwest 410 472 34,800 1,380 Climbing Gander Center
11:51AM 52.8000 -54.9167 241° Southwest 410 472 36,100 1,080 Climbing Gander Center
11:52AM 52.7667 -55.0167 241° Southwest 410 472 36,500 960 Climbing Moncton Center
11:53AM 52.7000 -55.1833 237° Southwest 410 472 37,600 720 Climbing Moncton Center
11:54AM 52.6500 -55.3333 241° Southwest 420 483 38,000 180 Climbing Moncton Center
11:54AM 52.6000 -55.5000 244° Southwest 420 483 38,000  Level Gander Center
11:55AM 52.5500 -55.6667 244° Southwest 420 483 38,000  Level Gander Center
11:56AM 52.4833 -55.8500 239° Southwest 420 483 38,000  Level Gander Center
11:57AM 52.4500 -55.9833 248° West 420 483 38,000  Level Gander Center
11:58AM 52.3833 -56.1500 237° Southwest 410 472 38,000  Level Gander Center
11:59AM 52.3500 -56.2667 245° Southwest 410 472 38,000  Level Gander Center
12:00PM 52.3000 -56.3500 226° Southwest 410 472 38,000  Level Moncton Center
12:00PM 52.2667 -56.4667 245° Southwest 410 472 38,000  Level Gander Center
12:01PM 52.2000 -56.6500 239° Southwest 410 472 38,000  Level Gander Center
12:02PM 52.1667 -56.7500 242° Southwest 410 472 38,000  Level Gander Center
12:03PM 52.1500 -56.8167 248° West 410 472 38,000  Level Moncton Center
12:03PM 52.1000 -56.9833 244° Southwest 410 472 38,000  Level Gander Center
12:04PM 52.0500 -57.0667 226° Southwest 410 472 38,000  Level Gander Center
12:05PM 52.0167 -57.1333 231° Southwest 410 472 38,000  Level Moncton Center
12:06PM 51.9667 -57.3000 244° Southwest 410 472 38,000  Level Moncton Center
12:07PM 51.9000 -57.4500 234° Southwest 410 472 38,000  Level Moncton Center
12:07PM 51.8500 -57.6000 242° Southwest 410 472 38,000  Level Gander Center
12:08PM 51.8167 -57.6833 237° Southwest 410 472 38,000  Level Gander Center
12:09PM 51.7500 -57.8500 237° Southwest 410 472 38,000  Level Gander Center
12:10PM 51.7000 -58.0167 244° Southwest 410 472 38,000  Level Gander Center
12:11PM 51.6333 -58.1833 237° Southwest 420 483 38,000  Level Gander Center
12:12PM 51.6000 -58.2500 231° Southwest 410 472 38,000  Level Moncton Center
12:13PM 51.5333 -58.4167 237° Southwest 420 483 38,000  Level Moncton Center
12:14PM 51.4667 -58.5667 235° Southwest 420 483 38,000  Level Moncton Center
12:15PM 51.4167 -58.7000 239° Southwest 420 483 38,000  Level Moncton Center
12:16PM 51.3500 -58.8667 237° Southwest 420 483 38,000  Level Moncton Center
12:16PM 51.3000 -59.0167 242° Southwest 420 483 38,000  Level Gander Center
12:17PM 51.2500 -59.1167 231° Southwest 420 483 38,000  Level Gander Center
12:18PM 51.1833 -59.2833 238° Southwest 420 483 38,000  Level Gander Center
12:19PM 51.1167 -59.4500 238° Southwest 420 483 38,000  Level Gander Center
12:20PM 51.0667 -59.5833 239° Southwest 420 483 38,000  Level Gander Center
12:21PM 51.0000 -59.7333 235° Southwest 420 483 38,000  Level Gander Center
12:22PM 50.9333 -59.9000 238° Southwest 420 483 38,000  Level Gander Center
12:23PM 50.8667 -60.0333 232° Southwest 410 472 38,000  Level Gander Center
12:24PM 50.8167 -60.2000 245° Southwest 410 472 38,000  Level Gander Center
12:25PM 50.7500 -60.3500 235° Southwest 410 472 38,000  Level Gander Center
12:26PM 50.6833 -60.4833 232° Southwest 410 472 38,000  Level Gander Center
12:27PM 50.6167 -60.6500 238° Southwest 410 472 38,000  Level Gander Center
12:28PM 50.5500 -60.7833 232° Southwest 410 472 38,000  Level Gander Center
12:29PM 50.4833 -60.9333 235° Southwest 410 472 38,000  Level Gander Center
12:30PM 50.4167 -61.1000 238° Southwest 420 483 38,000  Level Gander Center
12:31PM 50.3833 -61.1667 232° Southwest 420 483 38,000  Level Moncton Center
12:32PM 50.3167 -61.3333 238° Southwest 410 472 38,000  Level Moncton Center
12:33PM 50.2500 -61.4667 232° Southwest 410 472 38,000  Level Moncton Center
12:34PM 50.2000 -61.6167 243° Southwest 410 472 38,000  Level Moncton Center
12:35PM 50.1333 -61.7667 235° Southwest 410 472 38,000  Level Moncton Center
12:36PM 50.0667 -61.9000 232° Southwest 410 472 38,000  Level Moncton Center
12:37PM 50.0000 -62.0500 235° Southwest 410 472 38,000  Level Moncton Center
12:38PM 49.9167 -62.1833 226° Southwest 400 460 38,000  Level Moncton Center
12:39PM 49.8667 -62.3167 240° Southwest 390 449 38,000  Level Moncton Center
12:40PM 49.8167 -62.4833 245° Southwest 390 449 38,000  Level Moncton Center
12:41PM 49.7500 -62.6167 232° Southwest 400 460 38,000  Level Moncton Center
12:42PM 49.6833 -62.7333 229° Southwest 390 449 38,000  Level Moncton Center
12:43PM 49.6167 -62.8667 232° Southwest 390 449 38,000  Level Moncton Center
12:44PM 49.5500 -63.0000 232° Southwest 380 437 38,000  Level Moncton Center
12:45PM 49.4833 -63.1667 238° Southwest 390 449 38,000  Level Moncton Center
12:46PM 49.4167 -63.2833 229° Southwest 390 449 38,000  Level Moncton Center
12:47PM 49.3500 -63.4167 233° Southwest 390 449 38,000  Level Moncton Center
12:48PM 49.2833 -63.5500 233° Southwest 390 449 38,000  Level Moncton Center
12:49PM 49.2167 -63.6833 233° Southwest 390 449 38,000  Level Moncton Center
12:50PM 49.1667 -63.8000 237° Southwest 390 449 38,000  Level Moncton Center
12:51PM 49.0833 -63.9667 233° Southwest 390 449 38,000  Level Moncton Center
12:52PM 49.0333 -64.0833 237° Southwest 390 449 38,000  Level Moncton Center
12:53PM 48.9500 -64.2833 238° Southwest 380 437 38,000  Level Gander Center
12:54PM 48.8667 -64.4000 223° Southwest 380 437 38,000  Level Gander Center
12:55PM 48.8333 -64.4667 233° Southwest 380 437 38,000  Level Moncton Center
12:56PM 48.7833 -64.6000 240° Southwest 380 437 38,000  Level Moncton Center
12:57PM 48.7167 -64.7333 233° Southwest 370 426 38,000  Level Moncton Center
12:58PM 48.6500 -64.8500 229° Southwest 370 426 38,000  Level Moncton Center
12:59PM 48.6000 -64.9833 240° Southwest 360 414 38,000  Level Moncton Center
01:00PM 48.5333 -65.1000 229° Southwest 370 426 38,000  Level Moncton Center
01:01PM 48.4667 -65.2000 225° Southwest 370 426 38,000  Level Moncton Center
01:02PM 48.4000 -65.3500 236° Southwest 370 426 38,000  Level Moncton Center
01:03PM 48.3500 -65.4500 233° Southwest 370 426 38,000  Level Moncton Center
01:04PM 48.2833 -65.5833 233° Southwest 380 437 38,000  Level Moncton Center
01:05PM 48.2167 -65.7000 229° Southwest 370 426 38,000  Level Moncton Center
01:06PM 48.1500 -65.8333 233° Southwest 380 437 38,000  Level Moncton Center
01:07PM 48.0833 -65.9500 229° Southwest 380 437 38,000  Level Moncton Center
01:08PM 48.0167 -66.0667 230° Southwest 380 437 38,000  Level Moncton Center
01:09PM 47.9500 -66.2000 233° Southwest 380 437 38,000  Level Moncton Center
01:10PM 47.8833 -66.3167 230° Southwest 380 437 38,000  Level Moncton Center
01:11PM 47.8333 -66.4500 241° Southwest 380 437 38,000  Level Moncton Center
01:12PM 47.7667 -66.5667 230° Southwest 380 437 38,000  Level Moncton Center
01:13PM 47.7000 -66.6833 230° Southwest 370 426 38,000  Level Moncton Center
01:14PM 47.6167 -66.8000 223° Southwest 370 426 38,000  Level Moncton Center
01:15PM 47.5667 -66.9333 241° Southwest 370 426 38,000  Level Moncton Center
01:16PM 47.5000 -67.0500 230° Southwest 370 426 38,000  Level Moncton Center
01:17PM 47.4333 -67.1667 230° Southwest 370 426 38,000  Level Moncton Center
01:18PM 47.3833 -67.2833 238° Southwest 370 426 38,000  Level Moncton Center
01:19PM 47.3167 -67.4167 234° Southwest 370 426 38,000  Level Moncton Center
01:19PM 47.2736 -67.4667 218° Southwest 382 440 38,000  Level Boston Center
01:20PM 47.2053 -67.5797 228° Southwest 377 434 38,000  Level Boston Center
01:21PM 47.1508 -67.6731 229° Southwest 377 434 38,000  Level Boston Center
01:22PM 47.0689 -67.8144 230° Southwest 383 441 38,000  Level Boston Center
01:23PM 47.0006 -67.9267 228° Southwest 378 435 38,000  Level Boston Center
01:24PM 46.9300 -68.0478 230° Southwest 389 448 38,000  Level Boston Center
01:25PM 46.8636 -68.1625 230° Southwest 389 448 38,000  Level Boston Center
01:26PM 46.7903 -68.2711 225° Southwest 384 442 38,000  Level Boston Center
01:27PM 46.7239 -68.3911 231° Southwest 379 436 38,000  Level Boston Center
01:28PM 46.6550 -68.5081 229° Southwest 379 436 38,000  Level Boston Center
01:29PM 46.5836 -68.6158 226° Southwest 379 436 38,000  Level Boston Center
01:30PM 46.5144 -68.7319 229° Southwest 379 436 38,000  Level Boston Center
01:31PM 46.4289 -68.8672 227° Southwest 379 436 38,000  Level Boston Center
01:32PM 46.3575 -68.9800 227° Southwest 379 436 38,000  Level Boston Center
01:33PM 46.2858 -69.0956 228° Southwest 385 443 38,000  Level Boston Center
01:34PM 46.2139 -69.2078 227° Southwest 385 443 38,000  Level Boston Center
01:35PM 46.1422 -69.3228 228° Southwest 380 437 38,000  Level Boston Center
01:36PM 46.0722 -69.4372 229° Southwest 380 437 38,000  Level Boston Center
01:37PM 46.0000 -69.5486 227° Southwest 380 437 38,000  Level Boston Center
01:38PM 45.9278 -69.6628 228° Southwest 380 437 38,000  Level Boston Center
01:39PM 45.8553 -69.7706 226° Southwest 380 437 38,000  Level Boston Center
01:40PM 45.7831 -69.8869 228° Southwest 385 443 38,000  Level Boston Center
01:41PM 45.7083 -69.9972 226° Southwest 385 443 38,000  Level Boston Center
01:42PM 45.6358 -70.1133 228° Southwest 385 443 38,000  Level Boston Center
01:43PM 45.5608 -70.2258 226° Southwest 385 443 38,000  Level Boston Center
01:46PM 45.3986 -70.4744 227° Southwest 385 443 38,000  Level Boston Center
01:47PM 45.3256 -70.5833 226° Southwest 385 443 38,000  Level Boston Center
01:48PM 45.2503 -70.6947 226° Southwest 385 443 38,000  Level Boston Center
01:49PM 45.1769 -70.8061 227° Southwest 385 443 38,000  Level Boston Center
01:50PM 45.0869 -70.9378 226° Southwest 385 443 38,000  Level Boston Center
01:51PM 45.0175 -71.0453 228° Southwest 380 437 38,000  Level Boston Center
01:52PM 44.9397 -71.1558 225° Southwest 380 437 38,000  Level Boston Center
01:53PM 44.8658 -71.2658 227° Southwest 385 443 38,000  Level Boston Center
01:54PM 44.7919 -71.3756 227° Southwest 385 443 38,000  Level Boston Center
01:55PM 44.7158 -71.4850 226° Southwest 385 443 38,000  Level Boston Center
01:56PM 44.6353 -71.6028 226° Southwest 385 443 38,000  Level Boston Center
01:57PM 44.5611 -71.7117 226° Southwest 385 443 38,000  Level Boston Center
01:58PM 44.4847 -71.8175 225° Southwest 385 443 38,000  Level Boston Center
01:59PM 44.4144 -71.9169 225° Southwest 385 443 38,000  Level Boston Center
02:00PM 44.3397 -72.0250 226° Southwest 390 449 38,000  Level Boston Center
02:01PM 44.2797 -72.1094 225° Southwest 390 449 38,000  Level Boston Center
02:02PM 44.1842 -72.2547 227° Southwest 390 449 38,000  Level Boston Center
02:03PM 44.1050 -72.3592 223° Southwest 390 449 38,000  Level Boston Center
02:04PM 44.0281 -72.4661 225° Southwest 390 449 38,000  Level Boston Center
02:05PM 43.9508 -72.5756 226° Southwest 390 449 38,000  Level Boston Center
02:06PM 43.8736 -72.6819 225° Southwest 397 457 38,000 -60 Level Boston Center
02:07PM 43.7961 -72.7908 225° Southwest 402 463 37,900 -840 Descending Boston Center
02:08PM 43.7208 -72.8969 226° Southwest 402 463 36,400 -1,560 Descending Boston Center
02:09PM 43.6494 -73.0025 227° Southwest 396 456 34,800 -1,560 Descending Boston Center
02:10PM 43.5803 -73.0936 224° Southwest 389 448 33,300 -1,620 Descending Boston Center
02:11PM 43.5086 -73.1931 225° Southwest 379 436 31,600 -1,740 Descending Boston Center
02:12PM 43.4350 -73.2892 223° Southwest 379 436 29,900 -1,740 Descending Boston Center
02:13PM 43.3656 -73.3825 224° Southwest 374 430 28,200 -1,740 Descending Boston Center
02:14PM 43.2981 -73.4783 226° Southwest 361 415 26,500 -1,680 Descending Boston Center
02:15PM 43.2286 -73.5656 222° Southwest 354 407 24,900 -1,620 Descending Boston Center
02:16PM 43.1486 -73.6353 212° Southwest 348 400 23,300 -1,740 Descending Boston Center
02:17PM 43.0481 -73.6789 198° South 348 400 21,500 -1,200 Descending Boston Center
02:18PM 42.9581 -73.7167 197° South 348 400 21,000 -900 Descending Boston Center
02:19PM 42.8700 -73.7544 197° South 342 394 19,800 -1,380 Descending Boston Center
02:20PM 42.7967 -73.7842 197° South 323 372 18,300 -1,440 Descending Boston Center
02:21PM 42.7131 -73.8219 198° South 323 372 17,000 -1,200 Descending Boston Center
02:22PM 42.6292 -73.8622 199° South 323 372 16,000 -540 Descending Boston Center
02:23PM 42.5369 -73.8969 196° South 323 372 16,000  Level Boston Center
02:24PM 42.4383 -73.9425 199° South 323 372 16,000  Level Boston Center
02:25PM 42.3650 -73.9744 198° South 323 372 16,000  Level Boston Center
02:26PM 42.2958 -74.0036 197° South 323 372 16,000  Level Boston Center
02:27PM 42.1994 -74.0489 199° South 317 365 16,000  Level Boston Center
02:28PM 42.1050 -74.0911 198° South 317 365 16,000  Level Boston Center
02:29PM 42.0211 -74.1281 198° South 322 371 16,100 -180 Climbing Boston Center
02:30PM 41.9392 -74.1622 197° South 322 371 15,700 -600 Descending Boston Center
02:31PM 41.8614 -74.1989 199° South 313 360 15,000 -900 Descending Boston Center
02:32PM 41.7903 -74.2306 198° South 285 328 14,000 -540 Descending Boston Center
02:33PM 41.7147 -74.2617 197° South 285 328 14,000  Level Boston Center
02:34PM 41.6472 -74.3042 205° Southwest 285 328 14,000 -180 Level Boston Center
02:35PM 41.6583 -74.3881 280° West 223 257 13,700 -900 Descending Boston Center
02:36PM 41.7400 -74.3708 North 200 230 12,300 -1,140 Descending Boston Center
02:37PM 41.8133 -74.3481 13° North 229 264 11,200 -1,620 Descending Boston Center
02:38PM 41.8400 -74.2458 71° East 227 261 8,800 -1,620 Descending Boston Center
02:39PM 41.7778 -74.2272 167° South 141 162 8,000 -420 Descending Boston Center
02:40PM 41.7000 -74.2669 201° Southwest 230 265 8,000 -360 Level Boston Center
02:41PM 41.6369 -74.2928 197° South 261 300 7,300 -540 Descending Boston Center
02:42PM 41.5614 -74.3267 199° South 261 300 7,000 -180 Descending Boston Center
02:43PM 41.5006 -74.3525 198° South 266 306 7,000  Level Boston Center
02:46PM 41.3167 -74.4333 198° South 260 299 7,000  Level New York TRACON
02:47PM 41.2500 -74.4667 201° Southwest 259 298 7,000 -480 Level New York TRACON
02:48PM 41.1833 -74.4500 169° South 257 296 6,100 -480 Descending New York TRACON
02:49PM 41.1167 -74.4333 169° South 229 264 6,100  Level New York TRACON
02:50PM 41.0667 -74.4333 180° South 195 224 6,100 -540 Level New York TRACON
02:51PM 41.0500 -74.3667 108° East 217 250 5,100 -780 Descending New York TRACON
02:52PM 41.0167 -74.3000 124° Southeast 205 236 4,500 -540 Descending New York TRACON
02:53PM 40.9833 -74.2333 124° Southeast 208 239 4,100 -240 Descending New York TRACON
02:54PM 40.9500 -74.1667 123° Southeast 205 236 4,100  Level New York TRACON
02:55PM 40.9333 -74.1167 114° Southeast 197 227 4,100  Level New York TRACON